createdAt,value
2019-01-05T00:01:02.217Z,0.20
2019-01-05T00:03:48.464Z,0.20
2019-01-05T00:06:55.620Z,0.20
2019-01-05T00:09:42.553Z,0.20
2019-01-05T00:12:33.531Z,0.20
2019-01-05T00:15:24.730Z,0.30
2019-01-05T00:18:18.543Z,0.20
2019-01-05T00:21:04.920Z,0.30
2019-01-05T00:23:56.377Z,0.30
2019-01-05T00:26:54.159Z,0.30
2019-01-05T00:29:36.648Z,0.30
2019-01-05T00:32:39.441Z,0.30
2019-01-05T00:35:41.772Z,0.30
2019-01-05T00:38:28.962Z,0.30
2019-01-05T00:41:20.361Z,0.30
2019-01-05T00:44:24.497Z,0.30
2019-01-05T00:47:11.822Z,0.40
2019-01-05T00:50:00.739Z,0.40
2019-01-05T00:52:49.260Z,0.40
2019-01-05T00:55:36.656Z,0.40
2019-01-05T00:58:28.125Z,0.40
2019-01-05T01:01:31.598Z,0.40
2019-01-05T01:04:22.873Z,0.40
2019-01-05T01:07:14.448Z,0.30
2019-01-05T01:10:17.952Z,0.40
2019-01-05T01:13:09.462Z,0.40
2019-01-05T01:16:09.596Z,0.40
2019-01-05T01:19:04.103Z,0.30
2019-01-05T01:21:51.146Z,0.30
2019-01-05T01:24:51.634Z,0.30
2019-01-05T01:27:43.068Z,0.30
2019-01-05T01:30:46.657Z,0.30
2019-01-05T01:33:35.122Z,0.40
2019-01-05T01:36:29.185Z,0.40
2019-01-05T01:39:23.581Z,0.40
2019-01-05T01:42:10.931Z,0.40
2019-01-05T01:45:14.566Z,0.40
2019-01-05T01:48:05.949Z,0.30
2019-01-05T01:51:13.518Z,0.20
2019-01-05T01:54:01.955Z,0.20
2019-01-05T01:56:49.336Z,0.20
2019-01-05T02:00:11.428Z,0.10
2019-01-05T02:03:06.468Z,0.10
2019-01-05T02:05:57.766Z,0.10
2019-01-05T02:08:45.886Z,0.00
2019-01-05T02:11:35.875Z,0.00
2019-01-05T02:14:22.927Z,0.00
2019-01-05T02:17:20.508Z,0.00
2019-01-05T02:20:56.085Z,-0.10
2019-01-05T02:24:55.451Z,-0.10
2019-01-05T02:28:38.448Z,-0.20
2019-01-05T02:32:07.115Z,-0.20
2019-01-05T02:36:05.209Z,-0.10
2019-01-05T02:39:46.860Z,-0.10
2019-01-05T02:42:45.559Z,-0.20
2019-01-05T02:46:22.191Z,-0.20
2019-01-05T02:50:00.318Z,-0.10
2019-01-05T02:53:15.686Z,-0.20
2019-01-05T02:56:39.786Z,-0.10
2019-01-05T03:00:10.327Z,-0.10
2019-01-05T03:03:38.716Z,-0.10
2019-01-05T03:07:00.282Z,-0.10
2019-01-05T03:10:24.268Z,0.00
2019-01-05T03:13:36.455Z,0.00
2019-01-05T03:16:42.904Z,0.00
2019-01-05T03:20:25.389Z,0.00
2019-01-05T03:23:42.614Z,0.00
2019-01-05T03:27:11.550Z,0.10
2019-01-05T03:30:32.692Z,0.10
2019-01-05T03:34:20.579Z,0.10
2019-01-05T03:37:48.443Z,0.10
2019-01-05T03:41:06.798Z,0.10
2019-01-05T03:45:08.696Z,0.10
2019-01-05T03:48:25.321Z,0.10
2019-01-05T03:51:58.336Z,0.10
2019-01-05T03:55:23.547Z,0.20
2019-01-05T03:58:51.666Z,0.20
2019-01-05T04:02:14.310Z,0.20
2019-01-05T04:05:56.919Z,0.30
2019-01-05T04:09:27.939Z,0.30
2019-01-05T04:12:41.929Z,0.30
2019-01-05T04:16:07.647Z,0.30
2019-01-05T04:19:10.424Z,0.30
2019-01-05T04:22:37.557Z,0.30
2019-01-05T04:26:02.600Z,0.40
2019-01-05T04:29:19.755Z,0.40
2019-01-05T04:33:05.363Z,0.40
2019-01-05T04:36:37.239Z,0.40
2019-01-05T04:40:13.268Z,0.40
2019-01-05T04:43:30.081Z,0.50
2019-01-05T04:47:01.428Z,0.50
2019-01-05T04:50:33.993Z,0.50
2019-01-05T04:53:54.001Z,0.60
2019-01-05T04:57:30.459Z,0.60
2019-01-05T05:00:50.481Z,0.60
2019-01-05T05:04:04.291Z,0.60
2019-01-05T05:07:46.805Z,0.50
2019-01-05T05:11:09.642Z,0.50
2019-01-05T05:14:51.145Z,0.60
2019-01-05T05:18:14.120Z,0.60
2019-01-05T05:21:58.153Z,0.60
2019-01-05T05:25:41.373Z,0.60
2019-01-05T05:29:25.042Z,0.60
2019-01-05T05:33:22.142Z,0.50
2019-01-05T05:37:12.996Z,0.40
2019-01-05T05:40:37.371Z,0.40
2019-01-05T05:44:14.647Z,0.40
2019-01-05T05:47:48.323Z,0.20
2019-01-05T05:51:27.578Z,0.20
2019-01-05T05:55:28.493Z,0.20
2019-01-05T05:59:10.297Z,0.10
2019-01-05T06:02:32.402Z,0.00
2019-01-05T06:05:55.261Z,0.00
2019-01-05T06:09:36.063Z,0.00
2019-01-05T06:13:01.253Z,0.00
2019-01-05T06:16:25.820Z,0.00
2019-01-05T06:20:02.242Z,-0.10
2019-01-05T06:23:34.284Z,-0.10
2019-01-05T06:27:08.518Z,-0.10
2019-01-05T06:31:02.299Z,-0.10
2019-01-05T06:34:46.663Z,-0.20
2019-01-05T06:37:57.060Z,-0.30
2019-01-05T06:41:27.130Z,-0.30
2019-01-05T06:44:47.681Z,-0.40
2019-01-05T06:48:06.487Z,-0.30
2019-01-05T06:51:38.417Z,-0.40
2019-01-05T06:55:18.523Z,-0.50
2019-01-05T06:58:58.317Z,-0.50
2019-01-05T07:02:28.875Z,-0.60
2019-01-05T07:06:29.074Z,-0.50
2019-01-05T07:10:11.992Z,-0.50
2019-01-05T07:13:43.491Z,-0.50
2019-01-05T07:17:25.675Z,-0.50
2019-01-05T07:21:01.790Z,-0.60
2019-01-05T07:24:37.522Z,-0.60
2019-01-05T07:27:58.288Z,-0.60
2019-01-05T07:31:17.985Z,-0.60
2019-01-05T07:35:20.368Z,-0.70
2019-01-05T07:38:50.695Z,-0.70
2019-01-05T07:42:19.983Z,-0.60
2019-01-05T07:45:53.438Z,-0.70
2019-01-05T07:49:25.307Z,-0.70
2019-01-05T07:52:54.032Z,-0.60
2019-01-05T07:56:23.589Z,-0.70
2019-01-05T07:59:43.584Z,-0.60
2019-01-05T08:02:59.325Z,-0.70
2019-01-05T08:06:27.155Z,-0.60
2019-01-05T08:10:19.907Z,-0.60
2019-01-05T08:14:16.465Z,-0.60
2019-01-05T08:17:39.856Z,-0.60
2019-01-05T08:21:22.360Z,-0.40
2019-01-05T08:24:34.239Z,-0.50
2019-01-05T08:28:01.571Z,-0.40
2019-01-05T08:31:29.808Z,-0.30
2019-01-05T08:35:05.761Z,-0.30
2019-01-05T08:38:44.787Z,-0.30
2019-01-05T08:42:07.128Z,-0.30
2019-01-05T08:45:50.046Z,-0.30
2019-01-05T08:49:34.580Z,-0.30
2019-01-05T08:52:50.437Z,-0.30
2019-01-05T08:56:24.557Z,-0.10
2019-01-05T08:59:53.808Z,-0.20
2019-01-05T09:03:31.262Z,-0.10
2019-01-05T09:07:01.661Z,-0.10
2019-01-05T09:10:54.350Z,-0.10
2019-01-05T09:14:38.571Z,-0.10
2019-01-05T09:18:22.035Z,0.00
2019-01-05T09:21:42.800Z,0.00
2019-01-05T09:25:09.671Z,0.00
2019-01-05T09:28:33.752Z,0.10
2019-01-05T09:32:00.769Z,0.10
2019-01-05T09:35:36.643Z,0.10
2019-01-05T09:39:10.969Z,0.20
2019-01-05T09:42:39.048Z,0.20
2019-01-05T09:46:06.608Z,0.20
2019-01-05T09:49:59.285Z,0.30
2019-01-05T09:53:10.348Z,0.30
2019-01-05T09:57:03.606Z,0.30
2019-01-05T10:00:39.461Z,0.50
2019-01-05T10:03:55.508Z,0.40
2019-01-05T10:07:25.842Z,0.50
2019-01-05T10:10:55.732Z,0.60
2019-01-05T10:14:23.176Z,0.80
2019-01-05T10:17:54.860Z,0.70
2019-01-05T10:21:19.688Z,0.90
2019-01-05T10:25:10.958Z,0.90
2019-01-05T10:29:23.919Z,0.90
2019-01-05T10:32:58.598Z,1.00
2019-01-05T10:36:52.548Z,1.10
2019-01-05T10:40:19.205Z,1.20
2019-01-05T10:43:48.608Z,1.20
2019-01-05T10:47:11.459Z,1.30
2019-01-05T10:51:17.145Z,1.30
2019-01-05T10:54:57.639Z,1.30
2019-01-05T10:58:43.637Z,1.30
2019-01-05T11:06:16.538Z,1.40
2019-01-05T11:13:44.522Z,1.40
2019-01-05T11:17:40.725Z,1.40
2019-01-05T11:21:08.813Z,1.30
2019-01-05T11:24:36.158Z,1.40
2019-01-05T11:28:30.763Z,1.40
2019-01-05T11:32:02.603Z,1.50
2019-01-05T11:35:09.266Z,1.40
2019-01-05T11:38:50.552Z,1.50
2019-01-05T11:42:53.091Z,1.40
2019-01-05T11:46:24.490Z,1.40
2019-01-05T11:49:47.118Z,1.40
2019-01-05T11:52:58.767Z,1.40
2019-01-05T11:56:46.285Z,1.40
2019-01-05T12:00:09.586Z,1.20
2019-01-05T12:04:01.276Z,1.40
2019-01-05T12:07:24.366Z,1.40
2019-01-05T12:11:03.654Z,1.40
2019-01-05T12:14:33.667Z,1.40
2019-01-05T12:18:14.554Z,1.40
2019-01-05T12:22:06.944Z,1.50
2019-01-05T12:25:47.349Z,1.20
2019-01-05T12:29:56.653Z,1.30
2019-01-05T12:33:19.652Z,1.40
2019-01-05T12:36:55.408Z,1.30
2019-01-05T12:40:31.062Z,1.40
2019-01-05T12:44:18.940Z,1.40
2019-01-05T12:48:00.541Z,1.40
2019-01-05T12:51:30.611Z,1.40
2019-01-05T12:55:08.891Z,1.50
2019-01-05T12:59:00.966Z,1.40
2019-01-05T13:02:25.203Z,1.40
2019-01-05T13:05:53.099Z,1.40
2019-01-05T13:09:22.075Z,1.40
2019-01-05T13:12:42.153Z,1.40
2019-01-05T13:15:58.775Z,1.50
2019-01-05T13:23:48.794Z,1.40
2019-01-05T13:27:18.826Z,1.40
2019-01-05T13:30:57.460Z,1.30
2019-01-05T13:34:21.148Z,1.40
2019-01-05T13:37:55.267Z,1.50
2019-01-05T13:41:18.312Z,1.70
2019-01-05T13:45:05.544Z,1.40
2019-01-05T13:48:20.866Z,1.30
2019-01-05T13:52:06.994Z,1.30
2019-01-05T13:55:09.432Z,1.30
2019-01-05T13:57:57.196Z,1.30
2019-01-05T14:00:44.001Z,1.40
2019-01-05T14:03:35.289Z,1.30
2019-01-05T14:06:29.661Z,1.30
2019-01-05T14:09:24.784Z,1.30
2019-01-05T14:12:14.785Z,1.40
2019-01-05T14:15:09.398Z,1.30
2019-01-05T14:17:48.620Z,1.20
2019-01-05T14:20:37.161Z,1.30
2019-01-05T14:23:24.389Z,1.20
2019-01-05T14:26:18.138Z,1.20
2019-01-05T14:29:09.903Z,1.10
2019-01-05T14:32:03.242Z,1.20
2019-01-05T14:35:01.051Z,1.10
2019-01-05T14:37:55.266Z,1.10
2019-01-05T14:40:43.853Z,1.10
2019-01-05T14:43:33.905Z,1.10
2019-01-05T14:46:33.894Z,1.10
2019-01-05T14:49:21.379Z,1.00
2019-01-05T14:52:09.504Z,0.90
2019-01-05T14:55:01.208Z,1.00
2019-01-05T14:58:05.221Z,1.10
2019-01-05T15:00:59.844Z,1.10
2019-01-05T15:03:48.621Z,1.10
2019-01-05T15:06:36.365Z,1.00
2019-01-05T15:09:25.206Z,1.10
2019-01-05T15:12:16.671Z,1.10
2019-01-05T15:15:07.727Z,1.20
2019-01-05T15:18:03.882Z,1.10
2019-01-05T15:21:01.557Z,1.10
2019-01-05T15:23:59.081Z,1.10
2019-01-05T15:26:47.829Z,1.10
2019-01-05T15:29:36.623Z,1.10
2019-01-05T15:32:23.345Z,1.10
2019-01-05T15:35:11.519Z,1.10
2019-01-05T15:38:09.774Z,1.10
2019-01-05T15:40:58.098Z,1.20
2019-01-05T15:43:49.156Z,1.20
2019-01-05T15:46:42.237Z,1.10
2019-01-05T15:49:36.830Z,1.20
2019-01-05T15:52:37.115Z,1.20
2019-01-05T15:55:38.187Z,1.20
2019-01-05T15:58:26.262Z,1.20
2019-01-05T16:01:17.122Z,1.20
2019-01-05T16:04:05.184Z,1.30
2019-01-05T16:06:52.201Z,1.20
2019-01-05T16:09:43.394Z,1.30
2019-01-05T16:12:43.532Z,1.30
2019-01-05T16:15:49.962Z,1.30
2019-01-05T16:18:38.089Z,1.30
2019-01-05T16:21:24.853Z,1.30
2019-01-05T16:24:12.078Z,1.30
2019-01-05T16:27:01.834Z,1.30
2019-01-05T16:29:51.887Z,1.30
2019-01-05T16:32:38.625Z,1.30
2019-01-05T16:35:36.192Z,1.30
2019-01-05T16:38:24.291Z,1.30
2019-01-05T16:41:12.377Z,1.40
2019-01-05T16:44:00.524Z,1.30
2019-01-05T16:47:00.974Z,1.30
2019-01-05T16:49:47.712Z,1.30
2019-01-05T16:52:38.764Z,1.30
2019-01-05T16:55:30.841Z,1.20
2019-01-05T16:58:25.188Z,1.30
2019-01-05T17:01:12.310Z,1.30
2019-01-05T17:04:12.717Z,1.20
2019-01-05T17:07:12.984Z,1.10
2019-01-05T17:10:13.124Z,1.20
2019-01-05T17:13:16.352Z,1.20
2019-01-05T17:16:03.336Z,1.20
2019-01-05T17:18:57.490Z,1.20
2019-01-05T17:21:57.791Z,1.30
2019-01-05T17:24:45.628Z,1.20
2019-01-05T17:27:36.632Z,1.20
2019-01-05T17:30:24.665Z,1.20
2019-01-05T17:33:10.859Z,1.10
2019-01-05T17:35:58.377Z,1.20
2019-01-05T17:38:49.284Z,1.20
2019-01-05T17:41:55.796Z,1.10
2019-01-05T17:44:42.792Z,1.20
2019-01-05T17:47:31.065Z,1.20
2019-01-05T17:50:19.423Z,1.20
2019-01-05T17:53:19.098Z,1.20
2019-01-05T17:56:10.108Z,1.20
2019-01-05T17:58:58.134Z,1.20
2019-01-05T18:01:44.815Z,1.20
2019-01-05T18:04:51.512Z,1.20
2019-01-05T18:07:31.514Z,1.20
2019-01-05T18:10:19.638Z,1.20
2019-01-05T18:13:10.563Z,1.20
2019-01-05T18:15:58.681Z,1.10
2019-01-05T18:18:52.821Z,1.20
2019-01-05T18:21:56.293Z,1.20
2019-01-05T18:24:48.996Z,1.20
2019-01-05T18:27:36.317Z,1.30
2019-01-05T18:30:37.104Z,1.20
2019-01-05T18:33:31.026Z,1.10
2019-01-05T18:36:17.982Z,1.20
2019-01-05T18:39:11.268Z,1.20
2019-01-05T18:42:04.789Z,1.20
2019-01-05T18:44:54.237Z,1.20
2019-01-05T18:47:35.180Z,1.20
2019-01-05T18:50:22.485Z,1.30
2019-01-05T18:53:10.677Z,1.30
2019-01-05T18:55:57.336Z,1.20
2019-01-05T18:58:57.536Z,1.30
2019-01-05T19:01:44.562Z,1.30
2019-01-05T19:04:41.800Z,1.30
2019-01-05T19:07:29.958Z,1.30
2019-01-05T19:10:18.033Z,1.30
2019-01-05T19:13:06.172Z,1.30
2019-01-05T19:15:53.205Z,1.30
2019-01-05T19:18:40.297Z,1.30
2019-01-05T19:21:28.420Z,1.30
2019-01-05T19:24:15.272Z,1.40
2019-01-05T19:27:03.192Z,1.40
2019-01-05T19:30:02.272Z,1.40
2019-01-05T19:32:49.023Z,1.40
2019-01-05T19:35:55.862Z,1.30
2019-01-05T19:38:48.480Z,1.30
2019-01-05T19:41:33.692Z,1.30
2019-01-05T19:44:23.992Z,1.30
2019-01-05T19:47:23.624Z,1.30
2019-01-05T19:50:10.684Z,1.30
2019-01-05T19:53:01.132Z,1.20
2019-01-05T19:56:02.102Z,1.30
2019-01-05T19:58:49.545Z,1.30
2019-01-05T20:01:37.644Z,1.30
2019-01-05T20:04:24.748Z,1.40
2019-01-05T20:07:16.354Z,1.30
2019-01-05T20:10:03.335Z,1.30
2019-01-05T20:12:57.416Z,1.30
2019-01-05T20:15:51.514Z,1.30
2019-01-05T20:18:38.749Z,1.40
2019-01-05T20:21:26.906Z,1.40
2019-01-05T20:24:27.391Z,1.40
2019-01-05T20:27:15.282Z,1.40
2019-01-05T20:30:03.942Z,1.40
2019-01-05T20:32:50.831Z,1.40
2019-01-05T20:35:48.309Z,1.50
2019-01-05T20:38:35.273Z,1.40
2019-01-05T20:41:22.437Z,1.40
2019-01-05T20:44:16.709Z,1.40
2019-01-05T20:47:04.962Z,1.40
2019-01-05T20:49:51.945Z,1.40
2019-01-05T20:52:38.964Z,1.40
2019-01-05T20:55:25.862Z,1.40
2019-01-05T20:58:12.784Z,1.50
2019-01-05T21:00:59.757Z,1.50
2019-01-05T21:03:55.302Z,1.50
2019-01-05T21:06:50.251Z,1.50
2019-01-05T21:09:37.290Z,1.50
2019-01-05T21:12:43.696Z,1.50
2019-01-05T21:15:30.710Z,1.40
2019-01-05T21:18:22.375Z,1.40
2019-01-05T21:21:08.997Z,1.40
2019-01-05T21:24:09.325Z,1.40
2019-01-05T21:26:56.117Z,1.40
2019-01-05T21:29:42.913Z,1.40
2019-01-05T21:32:30.057Z,1.40
2019-01-05T21:35:17.773Z,1.40
2019-01-05T21:38:24.270Z,1.40
2019-01-05T21:41:11.207Z,1.30
2019-01-05T21:43:58.400Z,1.30
2019-01-05T21:46:49.269Z,1.30
2019-01-05T21:49:36.136Z,1.30
2019-01-05T21:52:24.244Z,1.30
2019-01-05T21:55:12.381Z,1.30
2019-01-05T21:58:06.712Z,1.30
2019-01-05T22:01:00.794Z,1.30
2019-01-05T22:03:58.064Z,1.30
2019-01-05T22:06:42.036Z,1.30
2019-01-05T22:09:28.956Z,1.30
2019-01-05T22:12:15.871Z,1.30
2019-01-05T22:15:02.665Z,1.40
2019-01-05T22:17:59.772Z,1.20
2019-01-05T22:20:46.760Z,1.20
2019-01-05T22:23:34.200Z,1.30
2019-01-05T22:26:28.476Z,1.20
2019-01-05T22:29:15.367Z,1.20
2019-01-05T22:32:02.314Z,1.20
2019-01-05T22:34:54.153Z,1.20
2019-01-05T22:37:34.798Z,1.20
2019-01-05T22:40:22.221Z,1.20
2019-01-05T22:43:16.521Z,1.10
2019-01-05T22:46:07.673Z,1.20
2019-01-05T22:49:08.020Z,1.20
2019-01-05T22:51:55.368Z,1.10
2019-01-05T22:54:43.555Z,1.10
2019-01-05T22:57:37.901Z,1.10
2019-01-05T23:00:26.528Z,1.20
2019-01-05T23:03:13.444Z,1.20
2019-01-05T23:06:00.241Z,1.20
2019-01-05T23:08:46.956Z,1.10
2019-01-05T23:11:53.592Z,1.20
2019-01-05T23:14:38.520Z,1.20
2019-01-05T23:17:29.785Z,1.10
2019-01-05T23:20:16.870Z,1.10
2019-01-05T23:23:04.456Z,1.10
2019-01-05T23:25:51.376Z,1.10
2019-01-05T23:28:38.432Z,1.10
2019-01-05T23:31:32.081Z,1.20
2019-01-05T23:34:30.515Z,1.20
2019-01-05T23:37:17.680Z,1.20
2019-01-05T23:40:24.072Z,1.20
2019-01-05T23:43:18.430Z,1.20
2019-01-05T23:46:18.926Z,1.20
2019-01-05T23:49:01.820Z,1.20
2019-01-05T23:51:49.634Z,1.30
2019-01-05T23:54:36.546Z,1.20
2019-01-05T23:57:24.839Z,1.30
